Time;durP1;ratioP1;P1;durP2;ratioP2;P2;SDS_P1;SDS_P2;PMS_P1;PMS_P2;Temp;Humidity;BMP_temperature;BMP_pressure;BME280_temperature;BME280_humidity;BME280_pressure;Samples;Min_cycle;Max_cycle;Signal;HPM_P1;HPM_P2
2024/02/07 00:00:57;;;;;;;13.93;2.65;;;6.60;99.90;;;;;;5063065;28;20207;-43
2024/02/07 00:03:23;;;;;;;12.40;2.28;;;6.60;99.90;;;;;;5063159;28;20198;-46
2024/02/07 00:05:49;;;;;;;12.95;2.30;;;6.60;99.90;;;;;;5063056;28;20717;-45
2024/02/07 00:08:16;;;;;;;19.85;2.50;;;6.70;99.90;;;;;;5063181;28;20182;-41
2024/02/07 00:10:41;;;;;;;11.57;2.03;;;6.70;99.90;;;;;;5063642;28;20656;-41
2024/02/07 00:13:08;;;;;;;11.55;2.38;;;6.70;99.90;;;;;;5061167;28;20206;-41
2024/02/07 00:15:33;;;;;;;15.32;1.90;;;6.60;99.90;;;;;;5063082;28;20349;-42
2024/02/07 00:17:59;;;;;;;17.67;2.05;;;6.70;99.90;;;;;;5062954;28;20261;-42
2024/02/07 00:20:25;;;;;;;10.07;1.83;;;6.70;99.90;;;;;;5062721;28;20614;-44
2024/02/07 00:22:51;;;;;;;13.57;2.05;;;6.70;99.90;;;;;;5059258;28;20257;-43
2024/02/07 00:25:16;;;;;;;7.95;1.83;;;6.70;99.90;;;;;;5061183;28;20655;-40
2024/02/07 00:27:42;;;;;;;11.88;2.03;;;6.70;99.90;;;;;;5062703;28;20193;-47
2024/02/07 00:30:10;;;;;;;14.88;2.47;;;6.70;99.90;;;;;;5063212;28;20597;-44
2024/02/07 00:32:35;;;;;;;11.35;1.67;;;6.70;99.90;;;;;;5049948;28;20194;-45
2024/02/07 00:35:01;;;;;;;17.65;2.25;;;6.70;99.90;;;;;;5062760;28;20209;-41
2024/02/07 00:37:27;;;;;;;19.73;2.75;;;6.70;99.90;;;;;;5063327;28;20191;-46
2024/02/07 00:39:53;;;;;;;17.67;2.53;;;6.80;99.90;;;;;;5062944;28;20218;-42
2024/02/07 00:42:19;;;;;;;16.80;2.65;;;6.80;99.90;;;;;;5061791;28;20190;-44
2024/02/07 00:44:44;;;;;;;24.38;2.90;;;6.80;99.90;;;;;;5062362;28;20201;-46
2024/02/07 00:47:13;;;;;;;17.90;2.42;;;6.80;99.90;;;;;;5062652;28;20191;-44
2024/02/07 00:49:39;;;;;;;12.13;2.35;;;6.80;99.90;;;;;;5062475;28;20195;-42
2024/02/07 00:52:05;;;;;;;22.92;3.08;;;6.90;99.90;;;;;;5062444;28;20565;-44
2024/02/07 00:54:31;;;;;;;19.00;3.03;;;6.80;99.90;;;;;;5062395;28;20268;-48
2024/02/07 00:56:57;;;;;;;20.15;3.25;;;6.90;99.90;;;;;;5061611;28;20202;-45
2024/02/07 00:59:22;;;;;;;15.93;2.15;;;6.90;99.90;;;;;;5062551;28;20191;-45
2024/02/07 01:01:49;;;;;;;23.67;3.13;;;6.90;99.90;;;;;;5061371;28;20642;-41
2024/02/07 01:04:15;;;;;;;15.95;2.90;;;6.90;99.90;;;;;;5061715;28;20182;-47
2024/02/07 01:06:41;;;;;;;16.45;3.17;;;6.90;99.90;;;;;;5062563;28;20609;-47
2024/02/07 01:09:07;;;;;;;24.02;2.83;;;6.90;99.90;;;;;;5061503;28;20198;-47
2024/02/07 01:11:33;;;;;;;21.20;2.85;;;7.00;99.90;;;;;;5061965;28;20229;-45
2024/02/07 01:13:58;;;;;;;27.70;2.80;;;7.00;99.90;;;;;;5061637;28;20230;-41
2024/02/07 01:16:24;;;;;;;24.83;3.20;;;7.00;99.90;;;;;;5061650;28;20232;-43
2024/02/07 01:18:53;;;;;;;21.35;3.13;;;7.00;99.90;;;;;;5060563;28;20202;-45
2024/02/07 01:21:18;;;;;;;28.88;4.00;;;7.00;99.90;;;;;;5060038;28;20222;-48
2024/02/07 01:23:45;;;;;;;21.45;3.15;;;7.00;99.90;;;;;;5061633;28;20202;-45
2024/02/07 01:26:13;;;;;;;22.77;3.88;;;7.00;99.90;;;;;;5060745;28;20191;-41
2024/02/07 01:28:39;;;;;;;28.33;3.75;;;7.10;99.90;;;;;;5061111;28;20280;-44
2024/02/07 01:31:06;;;;;;;21.27;3.13;;;7.10;99.90;;;;;;5062222;28;20558;-40
2024/02/07 01:33:32;;;;;;;21.88;3.00;;;7.10;99.90;;;;;;5060789;28;20209;-46
2024/02/07 01:35:58;;;;;;;27.65;4.03;;;7.20;99.90;;;;;;5062146;28;20246;-43
2024/02/07 01:38:24;;;;;;;23.25;4.03;;;7.10;99.90;;;;;;5060783;28;20186;-44
2024/02/07 01:40:50;;;;;;;26.48;3.70;;;7.20;99.90;;;;;;5061237;28;20719;-44
2024/02/07 01:43:16;;;;;;;21.83;3.15;;;7.20;99.90;;;;;;5061262;28;20236;-44
2024/02/07 01:45:43;;;;;;;28.50;3.13;;;7.20;99.90;;;;;;5061479;28;20689;-39
2024/02/07 01:48:09;;;;;;;18.85;3.30;;;7.10;99.90;;;;;;5061595;28;20210;-46
2024/02/07 01:50:36;;;;;;;21.95;3.50;;;7.10;99.90;;;;;;5059953;28;20267;-48
2024/02/07 01:53:04;;;;;;;23.63;3.17;;;7.20;99.90;;;;;;5061120;28;20198;-42
2024/02/07 01:55:32;;;;;;;23.88;3.47;;;7.10;99.90;;;;;;5061070;28;20262;-41
2024/02/07 01:58:01;;;;;;;29.83;4.22;;;7.10;99.90;;;;;;5059948;28;20265;-46
2024/02/07 02:00:27;;;;;;;24.48;3.47;;;7.10;99.90;;;;;;5060551;28;20215;-41
2024/02/07 02:02:53;;;;;;;22.20;3.50;;;7.00;99.90;;;;;;5060787;28;20240;-45
2024/02/07 02:05:20;;;;;;;29.85;3.92;;;7.10;99.90;;;;;;5059569;28;20260;-50
2024/02/07 02:07:49;;;;;;;27.40;4.07;;;7.00;99.90;;;;;;5061271;28;20178;-42
2024/02/07 02:10:15;;;;;;;22.58;3.53;;;7.00;99.90;;;;;;5061109;28;20197;-45
2024/02/07 02:12:44;;;;;;;17.77;3.38;;;7.00;99.90;;;;;;5060573;28;20710;-42
2024/02/07 02:15:10;;;;;;;27.58;3.90;;;7.00;99.90;;;;;;5060982;28;20202;-45
2024/02/07 02:17:36;;;;;;;26.08;4.03;;;7.00;99.90;;;;;;5061398;28;20220;-42
2024/02/07 02:20:04;;;;;;;33.53;4.28;;;7.00;99.90;;;;;;5059958;28;20217;-44
2024/02/07 02:23:09;;;;;;;24.02;3.70;;;7.00;99.90;;;;;;5060471;28;20199;-44
2024/02/07 02:25:52;;;;;;;24.48;4.00;;;7.00;99.90;;;;;;5039757;28;20206;-44
2024/02/07 02:28:40;;;;;;;32.28;4.78;;;7.00;99.90;;;;;;5060629;28;21077;-43
2024/02/07 02:31:11;;;;;;;31.65;4.07;;;7.00;99.90;;;;;;5060087;28;20226;-42
2024/02/07 02:33:39;;;;;;;23.02;3.53;;;7.00;99.90;;;;;;5059844;28;20186;-41
2024/02/07 02:36:06;;;;;;;29.33;4.10;;;7.00;99.90;;;;;;5060485;28;20205;-43
2024/02/07 02:38:38;;;;;;;36.10;4.25;;;7.00;99.90;;;;;;5060631;28;20221;-46
2024/02/07 02:41:07;;;;;;;26.98;3.92;;;6.90;99.90;;;;;;5060219;28;20272;-44
2024/02/07 02:43:33;;;;;;;28.90;3.42;;;7.00;99.90;;;;;;5060786;28;20256;-44
2024/02/07 02:45:58;;;;;;;18.45;3.53;;;7.00;99.90;;;;;;5060449;28;20182;-44
2024/02/07 02:48:24;;;;;;;22.98;3.50;;;7.00;99.90;;;;;;5059046;28;20179;-43
2024/02/07 02:50:50;;;;;;;33.03;4.32;;;7.00;99.90;;;;;;5059933;28;20679;-44
2024/02/07 02:53:18;;;;;;;23.80;3.50;;;7.00;99.90;;;;;;5059916;28;20216;-46
2024/02/07 02:55:45;;;;;;;23.10;3.63;;;7.00;99.90;;;;;;5060134;28;21292;-46
2024/02/07 02:58:11;;;;;;;20.80;3.50;;;7.00;99.90;;;;;;5060245;28;20305;-47
2024/02/07 03:00:37;;;;;;;21.85;3.85;;;7.00;99.90;;;;;;5059540;28;20210;-45
2024/02/07 03:03:03;;;;;;;26.20;3.70;;;7.00;99.90;;;;;;5059047;28;20241;-44
2024/02/07 03:10:38;;;;;;;36.03;3.78;;;7.00;99.90;;;;;;5060069;28;20203;-39
2024/02/07 03:13:04;;;;;;;29.63;3.95;;;7.00;99.90;;;;;;5060455;28;20655;-45
2024/02/07 03:15:32;;;;;;;22.92;3.60;;;7.00;99.90;;;;;;5062629;28;20569;-47
2024/02/07 03:17:58;;;;;;;15.30;2.97;;;7.00;99.90;;;;;;5064244;28;20624;-44
2024/02/07 03:20:23;;;;;;;22.10;2.95;;;6.90;99.90;;;;;;5063596;28;20238;-47
2024/02/07 03:22:49;;;;;;;12.00;2.20;;;6.90;99.90;;;;;;5064613;28;20277;-47
2024/02/07 03:25:20;;;;;;;16.02;2.53;;;6.90;99.90;;;;;;5061943;28;20190;-44
2024/02/07 03:27:49;;;;;;;10.60;2.67;;;6.80;99.90;;;;;;5063738;28;20230;-44
2024/02/07 03:30:24;;;;;;;18.25;3.10;;;6.80;99.90;;;;;;5045137;28;20233;-42
2024/02/07 03:32:53;;;;;;;22.75;3.20;;;6.70;99.90;;;;;;5064186;28;20247;-40
2024/02/07 03:35:19;;;;;;;14.32;3.00;;;6.70;99.90;;;;;;5063906;28;20220;-49
2024/02/07 03:37:44;;;;;;;27.27;3.90;;;6.70;99.90;;;;;;5064105;28;20194;-43
2024/02/07 03:40:13;;;;;;;21.25;3.70;;;6.70;99.90;;;;;;5063932;28;20242;-41
2024/02/07 03:42:41;;;;;;;17.13;2.67;;;6.70;99.90;;;;;;5063214;28;20194;-43
2024/02/07 03:45:07;;;;;;;29.90;4.43;;;6.70;99.90;;;;;;5063906;28;20174;-46
2024/02/07 03:47:34;;;;;;;27.05;4.18;;;6.60;99.90;;;;;;5063425;28;20689;-41
2024/02/07 03:50:04;;;;;;;24.30;3.92;;;6.60;99.90;;;;;;5063854;28;20676;-41
2024/02/07 03:52:30;;;;;;;22.00;4.25;;;6.60;99.90;;;;;;5063879;28;20240;-43
2024/02/07 03:54:56;;;;;;;26.42;4.25;;;6.50;99.90;;;;;;5063014;28;20228;-46
2024/02/07 03:57:21;;;;;;;22.13;3.10;;;6.50;99.90;;;;;;5059715;28;20275;-43
2024/02/07 03:59:48;;;;;;;28.17;4.00;;;6.50;99.90;;;;;;5061590;28;20214;-39
2024/02/07 04:02:21;;;;;;;27.20;3.80;;;6.50;99.90;;;;;;5063293;28;20639;-41
2024/02/07 04:04:50;;;;;;;18.83;3.42;;;6.50;99.90;;;;;;5063377;28;20194;-42
2024/02/07 04:07:20;;;;;;;20.35;3.33;;;6.50;99.90;;;;;;5063096;28;20201;-43
2024/02/07 04:09:46;;;;;;;34.05;4.00;;;6.40;99.90;;;;;;5061995;28;20534;-43
2024/02/07 05:17:26;;;;;;;23.08;3.15;;;6.10;99.90;;;;;;5061318;28;20679;-45
2024/02/07 05:19:51;;;;;;;22.38;3.30;;;6.10;99.90;;;;;;5061166;28;20280;-42
2024/02/07 05:22:17;;;;;;;20.70;3.10;;;6.00;99.90;;;;;;5093606;28;20273;-49
2024/02/07 05:24:47;;;;;;;30.35;3.80;;;6.00;99.90;;;;;;5060922;28;20194;-46
2024/02/07 05:27:13;;;;;;;18.50;3.28;;;6.00;99.90;;;;;;5061387;28;20564;-43
2024/02/07 05:29:39;;;;;;;22.50;4.07;;;6.00;99.90;;;;;;5061229;28;20237;-45
2024/02/07 05:32:06;;;;;;;23.38;2.88;;;6.00;99.90;;;;;;5061739;28;20187;-45
2024/02/07 05:34:33;;;;;;;20.05;3.35;;;6.00;99.90;;;;;;5061348;28;20220;-42
2024/02/07 05:36:59;;;;;;;20.55;2.83;;;6.00;99.90;;;;;;5061040;28;20251;-42
2024/02/07 05:39:26;;;;;;;17.23;2.92;;;6.00;99.90;;;;;;5061499;28;20737;-45
2024/02/07 05:41:52;;;;;;;20.33;2.80;;;5.90;99.90;;;;;;5076581;28;20233;-43
2024/02/07 05:44:18;;;;;;;12.13;2.53;;;5.90;99.90;;;;;;5060858;28;20682;-40
2024/02/07 05:46:44;;;;;;;19.63;3.05;;;5.90;99.90;;;;;;5060079;28;20237;-41
2024/02/07 05:49:13;;;;;;;23.70;3.05;;;5.90;99.90;;;;;;5060948;28;20313;-39
2024/02/07 05:51:42;;;;;;;19.13;2.80;;;5.90;99.90;;;;;;5061437;28;20542;-44
2024/02/07 05:54:08;;;;;;;14.88;2.40;;;5.90;99.90;;;;;;5061169;28;20314;-44
2024/02/07 05:56:34;;;;;;;19.20;2.72;;;5.90;99.90;;;;;;5059429;28;20205;-47
2024/02/07 05:59:00;;;;;;;20.05;2.63;;;5.80;99.90;;;;;;5060792;28;20244;-44
2024/02/07 06:01:29;;;;;;;18.75;3.40;;;5.90;99.90;;;;;;5060496;28;20218;-43
2024/02/07 06:03:55;;;;;;;13.98;2.40;;;5.90;99.90;;;;;;5058822;28;20201;-43
2024/02/07 06:06:23;;;;;;;20.17;3.13;;;5.90;99.90;;;;;;5059094;28;20596;-46
2024/02/07 06:08:52;;;;;;;18.98;2.40;;;5.90;99.90;;;;;;5092562;28;20236;-44
2024/02/07 06:11:18;;;;;;;23.33;3.40;;;5.90;99.90;;;;;;5059096;28;20222;-44
2024/02/07 06:13:44;;;;;;;14.43;2.92;;;5.90;99.90;;;;;;5060859;28;20239;-48
2024/02/07 06:16:10;;;;;;;18.85;2.35;;;5.90;99.90;;;;;;5059922;28;20314;-43
2024/02/07 06:18:36;;;;;;;26.60;3.00;;;5.80;99.90;;;;;;5060450;28;20198;-47
2024/02/07 06:21:02;;;;;;;16.05;2.30;;;5.80;99.90;;;;;;5060422;28;20253;-49
2024/02/07 06:23:28;;;;;;;20.90;3.08;;;5.80;99.90;;;;;;5060988;28;20190;-45
2024/02/07 06:25:54;;;;;;;17.92;2.75;;;5.70;99.90;;;;;;5060666;28;20182;-44
2024/02/07 06:28:20;;;;;;;18.20;2.38;;;5.70;99.90;;;;;;5059661;28;20248;-45
2024/02/07 06:30:47;;;;;;;13.45;2.90;;;5.70;99.90;;;;;;5059125;28;20258;-44
2024/02/07 06:33:12;;;;;;;19.20;3.08;;;5.70;99.90;;;;;;5060179;28;20222;-43
2024/02/07 06:35:38;;;;;;;16.23;2.85;;;5.70;99.90;;;;;;5059095;28;20214;-42
2024/02/07 06:38:04;;;;;;;15.45;2.55;;;5.60;99.90;;;;;;5060602;28;20313;-42
2024/02/07 06:40:30;;;;;;;26.38;2.88;;;5.60;99.90;;;;;;5056592;28;20195;-47
2024/02/07 06:42:56;;;;;;;16.33;2.50;;;5.60;99.90;;;;;;5060511;28;20277;-44
2024/02/07 06:45:22;;;;;;;20.52;2.72;;;5.60;99.90;;;;;;5058616;28;20198;-45
2024/02/07 06:47:48;;;;;;;15.85;2.70;;;5.50;99.90;;;;;;5059988;28;20190;-43
2024/02/07 06:50:14;;;;;;;11.85;2.38;;;5.50;99.90;;;;;;5062562;28;20249;-42
2024/02/07 06:52:41;;;;;;;14.73;2.30;;;5.50;99.90;;;;;;5064897;28;20188;-45
2024/02/07 06:55:07;;;;;;;17.42;2.33;;;5.50;99.90;;;;;;5064851;28;20316;-46
2024/02/07 06:57:33;;;;;;;18.98;2.72;;;5.40;99.90;;;;;;5064500;28;20678;-46
2024/02/07 06:59:58;;;;;;;15.98;2.55;;;5.40;99.90;;;;;;5061897;28;20210;-41
2024/02/07 07:02:24;;;;;;;13.80;2.33;;;5.40;99.90;;;;;;5079819;28;20194;-45
2024/02/07 07:04:50;;;;;;;19.15;2.53;;;5.40;99.90;;;;;;5062960;28;20186;-39
2024/02/07 07:07:16;;;;;;;18.38;2.40;;;5.40;99.90;;;;;;5064525;28;20976;-44
2024/02/07 07:09:42;;;;;;;21.40;2.60;;;5.40;99.90;;;;;;5064288;28;20217;-48
2024/02/07 07:12:08;;;;;;;11.73;2.65;;;5.40;99.90;;;;;;5063783;28;20179;-45
2024/02/07 07:14:40;;;;;;;11.43;2.33;;;5.40;99.90;;;;;;5064038;28;20190;-45
2024/02/07 07:17:06;;;;;;;22.58;2.63;;;5.40;99.90;;;;;;5050163;28;20202;-46
2024/02/07 07:19:31;;;;;;;17.23;2.72;;;5.40;99.90;;;;;;5064035;28;20245;-48
2024/02/07 07:21:57;;;;;;;15.93;2.63;;;5.50;99.90;;;;;;5063536;28;20630;-46
2024/02/07 07:24:23;;;;;;;12.75;2.40;;;5.50;99.90;;;;;;5062120;28;20190;-41
2024/02/07 07:26:48;;;;;;;17.50;2.65;;;5.50;99.90;;;;;;5063183;28;20247;-44
2024/02/07 07:29:15;;;;;;;18.30;2.75;;;5.60;99.90;;;;;;5061818;28;20310;-45
2024/02/07 07:31:41;;;;;;;17.65;2.83;;;5.50;99.90;;;;;;5059942;28;20277;-52
2024/02/07 07:34:07;;;;;;;14.35;2.83;;;5.60;99.90;;;;;;5062001;28;20286;-50
2024/02/07 07:36:32;;;;;;;17.63;2.50;;;5.60;99.90;;;;;;5061249;28;20658;-49
2024/02/07 07:38:58;;;;;;;17.27;2.90;;;5.60;99.90;;;;;;5063553;28;20267;-47
2024/02/07 07:41:24;;;;;;;15.10;2.67;;;5.60;99.90;;;;;;5059775;28;20306;-48
2024/02/07 07:43:51;;;;;;;15.63;2.30;;;5.60;99.90;;;;;;5062971;28;20233;-47
2024/02/07 07:46:16;;;;;;;18.23;2.38;;;5.60;99.90;;;;;;5063311;28;20313;-46
2024/02/07 07:48:42;;;;;;;14.45;2.55;;;5.60;99.90;;;;;;5061349;28;20190;-43
2024/02/07 07:51:08;;;;;;;10.38;2.33;;;5.50;99.90;;;;;;5061371;28;20212;-43
2024/02/07 07:53:34;;;;;;;13.20;2.60;;;5.50;99.90;;;;;;5049176;28;20198;-43
2024/02/07 07:56:00;;;;;;;10.93;2.25;;;5.50;99.90;;;;;;5063625;28;20194;-44
2024/02/07 07:58:25;;;;;;;16.92;2.47;;;5.50;99.90;;;;;;5061976;28;20194;-50
2024/02/07 08:00:51;;;;;;;15.05;2.75;;;5.50;99.90;;;;;;5044399;28;20224;-49
2024/02/07 08:03:17;;;;;;;18.08;2.53;;;5.60;99.90;;;;;;5045054;28;20206;-50
2024/02/07 08:05:43;;;;;;;11.18;2.50;;;5.60;99.90;;;;;;5062651;28;20191;-44
2024/02/07 08:08:09;;;;;;;15.00;2.30;;;5.60;99.90;;;;;;5063040;28;20202;-47
2024/02/07 08:10:35;;;;;;;13.20;2.38;;;5.70;99.90;;;;;;5058985;28;20229;-49
2024/02/07 08:13:01;;;;;;;13.32;2.25;;;5.70;99.90;;;;;;5061085;28;20205;-47
2024/02/07 08:15:26;;;;;;;17.15;2.67;;;5.80;99.90;;;;;;5062324;28;20206;-49
2024/02/07 08:17:52;;;;;;;13.05;1.98;;;5.80;99.90;;;;;;5078409;28;20248;-51
2024/02/07 08:20:22;;;;;;;15.32;2.22;;;5.90;99.90;;;;;;5062806;28;20207;-49
2024/02/07 08:22:48;;;;;;;12.07;2.30;;;5.90;99.90;;;;;;5062926;28;20610;-49
2024/02/07 08:25:14;;;;;;;12.75;2.47;;;6.00;99.90;;;;;;5062374;28;20604;-48
2024/02/07 08:27:40;;;;;;;17.33;2.78;;;6.00;99.90;;;;;;5060178;28;20194;-48
2024/02/07 08:30:06;;;;;;;15.48;2.33;;;6.10;99.90;;;;;;5061493;28;20311;-52
2024/02/07 08:32:32;;;;;;;12.02;2.60;;;6.10;99.90;;;;;;5062648;28;20214;-42
2024/02/07 08:35:01;;;;;;;18.63;2.58;;;6.10;99.90;;;;;;5061670;28;20205;-46
2024/02/07 08:37:27;;;;;;;15.90;2.72;;;6.10;99.90;;;;;;5062013;28;20198;-48
2024/02/07 08:39:53;;;;;;;14.32;2.20;;;6.10;99.90;;;;;;5062266;28;20536;-46
2024/02/07 08:42:19;;;;;;;17.42;2.50;;;6.20;99.90;;;;;;5062341;28;20292;-50
2024/02/07 08:44:45;;;;;;;9.85;2.13;;;6.20;99.90;;;;;;5061704;28;20651;-47
2024/02/07 08:47:10;;;;;;;14.88;2.00;;;6.20;99.90;;;;;;5060281;28;20194;-50
2024/02/07 08:49:36;;;;;;;16.30;2.63;;;6.20;99.90;;;;;;5061954;28;20191;-49
2024/02/07 08:52:01;;;;;;;14.50;2.42;;;6.20;99.90;;;;;;5061667;28;20198;-49
2024/02/07 08:54:27;;;;;;;13.68;2.28;;;6.20;99.90;;;;;;5062102;28;20305;-48
2024/02/07 08:56:53;;;;;;;23.90;2.65;;;6.20;99.90;;;;;;5060130;28;20190;-51
2024/02/07 08:59:18;;;;;;;14.18;2.42;;;6.20;99.90;;;;;;5061075;28;20202;-49
2024/02/07 09:01:44;;;;;;;17.95;2.33;;;6.20;99.90;;;;;;5062314;28;20311;-46
2024/02/07 09:04:10;;;;;;;16.40;2.60;;;6.20;99.90;;;;;;5061447;28;20760;-51
2024/02/07 09:06:37;;;;;;;22.02;2.92;;;6.20;99.90;;;;;;5062579;28;20185;-51
2024/02/07 09:09:02;;;;;;;15.60;2.53;;;6.10;99.90;;;;;;5043697;28;20197;-50
2024/02/07 09:11:31;;;;;;;16.38;2.38;;;6.10;99.90;;;;;;5061867;28;20203;-50
2024/02/07 09:13:57;;;;;;;15.75;2.35;;;6.10;99.90;;;;;;5059675;28;21257;-49
2024/02/07 09:16:22;;;;;;;23.92;2.50;;;6.10;99.90;;;;;;5061570;28;20209;-51
2024/02/07 09:18:48;;;;;;;17.60;2.42;;;6.10;99.90;;;;;;5061829;28;20364;-50
2024/02/07 09:21:17;;;;;;;19.13;2.47;;;6.10;99.90;;;;;;5061038;28;20288;-49
2024/02/07 09:23:43;;;;;;;16.73;2.65;;;6.20;99.90;;;;;;5060389;28;20538;-43
2024/02/07 09:26:09;;;;;;;17.45;2.60;;;6.20;99.90;;;;;;5060867;28;20271;-49
2024/02/07 09:28:35;;;;;;;12.32;2.33;;;6.20;99.90;;;;;;5061517;28;20198;-49
2024/02/07 09:31:00;;;;;;;15.45;2.33;;;6.30;99.90;;;;;;5060886;28;20275;-45
2024/02/07 09:33:26;;;;;;;14.68;2.55;;;6.30;99.90;;;;;;5059205;28;20328;-51
2024/02/07 09:35:52;;;;;;;13.40;2.55;;;6.40;99.90;;;;;;5061858;28;20202;-47
2024/02/07 09:38:21;;;;;;;21.45;2.65;;;6.50;99.90;;;;;;5061664;28;20205;-46
2024/02/07 09:40:53;;;;;;;15.32;3.15;;;6.50;99.90;;;;;;5061148;28;20229;-43
2024/02/07 09:43:20;;;;;;;14.10;2.22;;;6.60;99.90;;;;;;5060329;28;20994;-44
2024/02/07 09:45:47;;;;;;;17.77;2.60;;;6.60;99.90;;;;;;5061177;28;20208;-49
2024/02/07 09:48:20;;;;;;;14.82;2.95;;;6.70;99.90;;;;;;5061405;28;20199;-43
2024/02/07 09:50:47;;;;;;;16.88;2.55;;;6.80;99.90;;;;;;5061090;28;20198;-47
2024/02/07 09:53:15;;;;;;;17.85;2.42;;;6.80;99.90;;;;;;5061201;28;20194;-45
2024/02/07 09:55:42;;;;;;;20.15;3.35;;;6.80;99.90;;;;;;5060666;28;20237;-41
2024/02/07 09:58:09;;;;;;;23.83;3.70;;;6.90;99.90;;;;;;5061230;28;20193;-48
2024/02/07 10:00:35;;;;;;;30.48;3.70;;;6.90;99.90;;;;;;5060208;28;20214;-44
2024/02/07 10:03:07;;;;;;;15.88;2.95;;;7.00;99.90;;;;;;5060802;28;20197;-45
2024/02/07 10:05:34;;;;;;;14.68;3.35;;;7.00;99.90;;;;;;5060784;28;20269;-46
2024/02/07 10:08:01;;;;;;;25.85;3.38;;;7.10;99.90;;;;;;5059971;28;20216;-44
2024/02/07 10:10:27;;;;;;;21.45;3.10;;;7.10;99.90;;;;;;5060663;28;20198;-45
2024/02/07 10:12:56;;;;;;;16.08;2.63;;;7.10;99.90;;;;;;5090637;28;20194;-48
2024/02/07 10:15:25;;;;;;;20.60;2.95;;;7.20;99.90;;;;;;5059981;28;20273;-48
2024/02/07 10:17:51;;;;;;;14.13;2.92;;;7.20;99.90;;;;;;5059898;28;20282;-46
2024/02/07 10:20:17;;;;;;;13.95;2.67;;;7.30;99.90;;;;;;5060823;28;20217;-53
2024/02/07 10:22:43;;;;;;;18.50;2.75;;;7.30;99.90;;;;;;5059086;28;20199;-49
2024/02/07 10:25:12;;;;;;;16.48;3.38;;;7.30;99.90;;;;;;5059607;28;20191;-48
2024/02/07 10:27:38;;;;;;;19.08;3.63;;;7.30;99.90;;;;;;5060285;28;20202;-45
2024/02/07 10:30:07;;;;;;;22.55;3.60;;;7.30;99.90;;;;;;5060722;28;20284;-51
2024/02/07 10:32:34;;;;;;;21.05;3.30;;;7.40;99.90;;;;;;5043005;28;20734;-46
2024/02/07 10:35:00;;;;;;;19.40;2.58;;;7.40;99.90;;;;;;5059952;28;20202;-47
2024/02/07 10:37:26;;;;;;;25.23;2.95;;;7.40;99.90;;;;;;5060366;28;20719;-46
2024/02/07 10:40:11;;;;;;;17.52;3.08;;;7.40;99.90;;;;;;5060366;28;20289;-49
2024/02/07 10:42:39;;;;;;;14.88;2.78;;;7.30;99.90;;;;;;5060317;28;20187;-43
2024/02/07 10:45:09;;;;;;;23.35;3.10;;;7.30;99.90;;;;;;5058634;28;20222;-46
2024/02/07 10:47:37;;;;;;;18.60;2.58;;;7.30;99.90;;;;;;5059815;28;20556;-47
2024/02/07 10:50:05;;;;;;;24.52;3.20;;;7.20;99.90;;;;;;5059965;28;20269;-46
2024/02/07 10:52:32;;;;;;;8.07;2.38;;;7.30;99.90;;;;;;5060470;28;20206;-46
2024/02/07 10:54:58;;;;;;;14.98;2.80;;;7.30;99.90;;;;;;5059669;28;20194;-47
2024/02/07 10:57:32;;;;;;;18.67;3.13;;;7.30;99.90;;;;;;5060083;28;20198;-47
2024/02/07 10:59:59;;;;;;;16.92;2.80;;;7.40;99.90;;;;;;5059782;28;20206;-48
2024/02/07 11:02:26;;;;;;;17.92;2.60;;;7.40;99.90;;;;;;5059257;28;20194;-46
2024/02/07 11:04:52;;;;;;;15.02;2.78;;;7.40;99.90;;;;;;5060500;28;20206;-50
2024/02/07 11:07:18;;;;;;;13.18;2.25;;;7.50;99.90;;;;;;5059000;28;20209;-50
2024/02/07 11:09:45;;;;;;;16.30;2.65;;;7.50;99.90;;;;;;5058195;28;20190;-48
2024/02/07 11:12:14;;;;;;;12.55;2.50;;;7.50;99.90;;;;;;5059750;28;20654;-48
2024/02/07 11:14:43;;;;;;;19.05;2.92;;;7.50;99.90;;;;;;5058716;28;20997;-53
2024/02/07 11:17:09;;;;;;;17.70;3.30;;;7.60;99.90;;;;;;5059557;28;20191;-47
2024/02/07 11:19:36;;;;;;;15.50;2.70;;;7.50;99.90;;;;;;5059529;28;20370;-54
2024/02/07 11:22:06;;;;;;;10.80;1.90;;;7.50;99.90;;;;;;5059666;28;20246;-48
2024/02/07 11:24:33;;;;;;;15.15;2.20;;;7.60;99.90;;;;;;5059752;28;20611;-50
2024/02/07 11:27:00;;;;;;;15.00;2.20;;;7.50;99.90;;;;;;5074850;28;20313;-47
2024/02/07 11:29:27;;;;;;;14.75;2.58;;;7.50;99.90;;;;;;5058677;28;20226;-45
2024/02/07 11:31:55;;;;;;;8.07;1.75;;;7.40;99.90;;;;;;5059359;28;20545;-43
2024/02/07 11:34:20;;;;;;;13.25;2.58;;;7.50;99.90;;;;;;5059689;28;20565;-44
2024/02/07 11:36:55;;;;;;;14.32;2.10;;;7.50;99.90;;;;;;5062317;28;20247;-47
2024/02/07 11:39:22;;;;;;;10.80;2.08;;;7.50;99.90;;;;;;5063475;28;20255;-48
2024/02/07 11:41:48;;;;;;;16.17;2.60;;;7.50;99.90;;;;;;5063222;28;20214;-44
2024/02/07 11:44:17;;;;;;;15.27;2.45;;;7.50;99.90;;;;;;5062173;28;20199;-49
2024/02/07 11:46:56;;;;;;;13.38;2.40;;;7.50;99.90;;;;;;5062143;28;20569;-47
2024/02/07 11:49:28;;;;;;;13.10;2.03;;;7.50;99.90;;;;;;5061761;28;20194;-48
2024/02/07 11:51:59;;;;;;;10.90;2.20;;;7.40;99.90;;;;;;5061581;28;20198;-50
2024/02/07 11:54:30;;;;;;;15.43;2.20;;;7.40;99.90;;;;;;5060368;28;20205;-47
2024/02/07 11:56:59;;;;;;;11.63;1.80;;;7.40;99.90;;;;;;5062098;28;20373;-44
2024/02/07 11:59:24;;;;;;;16.00;2.50;;;7.40;99.90;;;;;;5062210;28;20198;-48
2024/02/07 12:01:50;;;;;;;14.75;2.38;;;7.40;99.90;;;;;;5062653;28;20194;-46
2024/02/07 12:04:16;;;;;;;11.70;2.08;;;7.40;99.90;;;;;;5062616;28;20376;-45
2024/02/07 12:06:44;;;;;;;18.08;2.50;;;7.40;99.90;;;;;;5062548;28;20187;-47
2024/02/07 12:09:10;;;;;;;8.50;2.00;;;7.40;99.90;;;;;;5062387;28;20194;-47
2024/02/07 12:11:35;;;;;;;11.68;2.17;;;7.40;99.90;;;;;;5062623;28;20190;-49
2024/02/07 12:14:01;;;;;;;9.93;2.05;;;7.40;99.90;;;;;;5061459;28;20308;-48
2024/02/07 12:16:27;;;;;;;11.15;2.22;;;7.40;99.90;;;;;;5062892;28;20183;-46
2024/02/07 12:18:52;;;;;;;11.43;2.38;;;7.40;99.90;;;;;;5061380;28;20281;-48
2024/02/07 12:21:18;;;;;;;9.60;1.90;;;7.40;99.90;;;;;;5044211;28;20255;-45
2024/02/07 12:23:45;;;;;;;12.85;2.38;;;7.40;99.90;;;;;;5062686;28;20195;-44
2024/02/07 12:26:11;;;;;;;10.13;2.20;;;7.50;99.90;;;;;;5062236;28;20570;-47
2024/02/07 12:28:36;;;;;;;7.72;2.03;;;7.50;99.90;;;;;;5062813;28;20183;-44
2024/02/07 12:31:03;;;;;;;14.60;2.17;;;7.50;99.90;;;;;;5061817;28;20230;-46
2024/02/07 12:33:29;;;;;;;7.45;2.03;;;7.50;99.90;;;;;;5062017;28;20198;-47
2024/02/07 12:36:02;;;;;;;11.55;2.10;;;7.50;99.90;;;;;;5062453;28;20195;-48
2024/02/07 12:38:28;;;;;;;8.27;1.85;;;7.60;99.90;;;;;;5058589;28;20388;-46
2024/02/07 12:40:55;;;;;;;14.70;2.08;;;7.60;99.90;;;;;;5062142;28;20230;-47
2024/02/07 12:43:28;;;;;;;10.35;2.00;;;7.60;99.90;;;;;;5076963;28;20183;-45
2024/02/07 12:45:56;;;;;;;13.75;2.05;;;7.60;99.90;;;;;;5061472;28;20673;-49
2024/02/07 12:48:23;;;;;;;12.07;2.35;;;7.60;99.90;;;;;;5060350;28;20203;-44
2024/02/07 12:50:49;;;;;;;9.68;2.00;;;7.60;99.90;;;;;;5061842;28;20182;-44
2024/02/07 12:53:17;;;;;;;17.15;2.53;;;7.70;99.90;;;;;;5062367;28;20245;-48
2024/02/07 12:55:46;;;;;;;13.02;1.77;;;7.70;99.90;;;;;;5062263;28;20285;-51
2024/02/07 12:58:12;;;;;;;11.05;2.05;;;7.70;99.90;;;;;;5062046;28;20199;-47
2024/02/07 13:00:38;;;;;;;12.00;2.25;;;7.70;99.90;;;;;;5061636;28;21078;-48
2024/02/07 13:03:04;;;;;;;8.43;2.38;;;7.70;99.90;;;;;;5061843;28;20735;-47
2024/02/07 13:05:31;;;;;;;13.40;2.35;;;7.70;99.90;;;;;;5061050;28;20210;-49
2024/02/07 13:07:57;;;;;;;10.32;2.22;;;7.60;99.90;;;;;;5062001;28;20194;-43
2024/02/07 13:10:23;;;;;;;11.00;2.00;;;7.70;99.90;;;;;;5061637;28;20696;-47
2024/02/07 13:12:49;;;;;;;14.35;2.30;;;7.70;99.90;;;;;;5061142;28;20193;-42
2024/02/07 13:15:19;;;;;;;13.52;2.33;;;7.80;99.90;;;;;;5061618;28;20199;-43
2024/02/07 13:17:46;;;;;;;9.40;2.38;;;7.90;99.90;;;;;;5058252;28;20607;-46
2024/02/07 13:20:12;;;;;;;17.52;2.33;;;8.00;99.90;;;;;;5061484;28;20194;-44
2024/02/07 13:22:39;;;;;;;16.98;2.65;;;8.00;99.90;;;;;;5061379;28;20218;-50
2024/02/07 13:25:13;;;;;;;10.35;2.20;;;8.20;99.90;;;;;;5060895;28;20194;-49
2024/02/07 13:27:39;;;;;;;17.83;2.53;;;8.20;99.90;;;;;;5059506;28;20186;-51
2024/02/07 13:30:07;;;;;;;9.52;2.00;;;8.20;99.90;;;;;;5061037;28;20220;-42
2024/02/07 13:32:33;;;;;;;23.25;2.50;;;8.30;99.90;;;;;;5060684;28;20214;-47
2024/02/07 13:34:59;;;;;;;17.45;2.20;;;8.20;99.90;;;;;;5060753;28;20218;-42
2024/02/07 13:37:25;;;;;;;16.67;2.63;;;8.20;99.90;;;;;;5061104;28;20218;-45
2024/02/07 13:39:51;;;;;;;10.20;1.98;;;8.20;99.90;;;;;;5061343;28;20267;-48
2024/02/07 13:42:17;;;;;;;31.15;3.00;;;8.10;99.90;;;;;;5060890;28;20179;-52
2024/02/07 13:44:43;;;;;;;43.60;4.35;;;8.00;99.90;;;;;;5060565;28;20209;-46
2024/02/07 13:47:09;;;;;;;15.15;3.08;;;8.00;99.90;;;;;;5059706;28;20186;-44
2024/02/07 13:49:35;;;;;;;12.45;2.35;;;7.90;99.90;;;;;;5060921;28;20224;-50
2024/02/07 13:52:02;;;;;;;14.98;2.15;;;7.90;99.90;;;;;;5060507;28;20655;-46
2024/02/07 13:54:28;;;;;;;14.70;2.42;;;7.80;99.90;;;;;;5042235;28;20190;-41
2024/02/07 13:56:54;;;;;;;15.35;2.63;;;7.80;99.90;;;;;;5060755;28;20196;-48